PWSweather.com
Personal Weather Stations
Station Observations

SaroSE

Lat: 57.5222, Lon: 11.947

Elevation: 35

Station Type: Davis VP2

http://www.lokaltvader.se/

Latest ConditionsUpdated 7:15:00 AM GMT+01:01 Saturday, Jan 18, 2020
Currently Today's Max Today's Min Today's Average
Temperature 43.4°F6.3°C 44.0°F6.7°C 42.7°F5.9°C 43.6°F6.4°C
Dew Point 42.6°F5.9°C 43.2°F6.2°C 41.6°F5.3°C 42.8°F6.0°C
Winds 11.5 mph SSW18.5 kmh SSW 12.7 mph -20.4 kmh - - 9.4 mph 15.1 kmh
Wind Gusts 21.9 mph35.2 kmh 21.9 mph35.2 kmh - -
Humidity 97% 97% 96% 97%
Pressure 29.70 in1005.8 mb 29.72 in1006.4 mb 29.70 in1005.8 mb -
Precipitation - 0.09 in2.3 mm - -
Hour Temp Dew Point Humidity Winds Wind Gusts Pressure Precip Precip Rate Daily Precip Total
07:15 AM 43.4°F6.3°C 42.6°F5.9°C 97% 11.5 mph SSW18.5 kmh SSW 21.9 mph35.2 kmh 29.70 in1005.8 mb - 0.00 in0.0 mm 0.09 in2.3 mm
07:00 AM 43.4°F6.3°C 42.6°F5.9°C 97% 10.4 mph SSW16.7 kmh SSW 16.1 mph25.9 kmh 29.71 in1006.1 mb - 0.00 in0.0 mm 0.09 in2.3 mm
06:45 AM 43.5°F6.4°C 42.7°F5.9°C 97% 8.1 mph S13.0 kmh S 10.4 mph16.7 kmh 29.71 in1006.1 mb - 0.00 in0.0 mm 0.09 in2.3 mm
06:30 AM 43.7°F6.5°C 42.9°F6.1°C 97% 9.2 mph SSW14.8 kmh SSW 13.8 mph22.2 kmh 29.71 in1006.1 mb - 0.00 in0.0 mm 0.09 in2.3 mm
06:15 AM 43.8°F6.6°C 43.0°F6.1°C 97% 10.4 mph SSW16.7 kmh SSW 17.3 mph27.8 kmh 29.71 in1006.1 mb - 0.00 in0.0 mm 0.09 in2.3 mm
06:00 AM 43.9°F6.6°C 43.1°F6.2°C 97% 12.7 mph SW20.4 kmh SW 16.1 mph25.9 kmh 29.71 in1006.1 mb - 0.00 in0.0 mm 0.09 in2.3 mm
05:45 AM 43.9°F6.6°C 43.1°F6.2°C 97% 9.2 mph SSW14.8 kmh SSW 19.6 mph31.5 kmh 29.71 in1006.1 mb - 0.00 in0.0 mm 0.09 in2.3 mm
05:30 AM 43.9°F6.6°C 43.1°F6.2°C 97% 10.4 mph SSW16.7 kmh SSW 19.6 mph31.5 kmh 29.71 in1006.1 mb - 0.00 in0.0 mm 0.09 in2.3 mm
05:15 AM 43.9°F6.6°C 43.1°F6.2°C 97% 12.7 mph SSW20.4 kmh SSW 16.1 mph25.9 kmh 29.71 in1006.1 mb - 0.00 in0.0 mm 0.09 in2.3 mm
05:00 AM 44.0°F6.7°C 43.2°F6.2°C 97% 11.5 mph SSW18.5 kmh SSW 16.1 mph25.9 kmh 29.71 in1006.1 mb - 0.00 in0.0 mm 0.09 in2.3 mm
04:45 AM 44.0°F6.7°C 43.2°F6.2°C 97% 6.9 mph SSW11.1 kmh SSW 12.7 mph20.4 kmh 29.71 in1006.1 mb - 0.00 in0.0 mm 0.09 in2.3 mm
04:30 AM 43.9°F6.6°C 43.1°F6.2°C 97% 8.1 mph SW13.0 kmh SW 12.7 mph20.4 kmh 29.71 in1006.1 mb - 0.00 in0.0 mm 0.09 in2.3 mm
04:15 AM 43.9°F6.6°C 43.1°F6.2°C 97% 9.2 mph SW14.8 kmh SW 11.5 mph18.5 kmh 29.71 in1006.1 mb - 0.00 in0.0 mm 0.09 in2.3 mm
04:00 AM 43.8°F6.6°C 43.0°F6.1°C 97% 8.1 mph SW13.0 kmh SW 11.5 mph18.5 kmh 29.71 in1006.1 mb - 0.00 in0.0 mm 0.09 in2.3 mm
03:45 AM 43.8°F6.6°C 43.0°F6.1°C 97% 8.1 mph SW13.0 kmh SW 10.4 mph16.7 kmh 29.71 in1006.1 mb - 0.00 in0.0 mm 0.09 in2.3 mm
03:30 AM 43.9°F6.6°C 43.1°F6.2°C 97% 5.8 mph SW9.3 kmh SW 9.2 mph14.8 kmh 29.71 in1006.1 mb - 0.00 in0.0 mm 0.09 in2.3 mm
03:15 AM 43.9°F6.6°C 43.1°F6.2°C 97% 11.5 mph SW18.5 kmh SW 13.8 mph22.2 kmh 29.71 in1006.1 mb - 0.00 in0.0 mm 0.09 in2.3 mm
03:00 AM 43.9°F6.6°C 43.1°F6.2°C 97% 10.4 mph SW16.7 kmh SW 13.8 mph22.2 kmh 29.71 in1006.1 mb - 0.00 in0.0 mm 0.09 in2.3 mm
02:45 AM 43.9°F6.6°C 43.1°F6.2°C 97% 8.1 mph SW13.0 kmh SW 11.5 mph18.5 kmh 29.71 in1006.1 mb - 0.00 in0.0 mm 0.09 in2.3 mm
02:30 AM 43.9°F6.6°C 43.1°F6.2°C 97% 8.1 mph SW13.0 kmh SW 15.0 mph24.1 kmh 29.72 in1006.4 mb - 0.00 in0.0 mm 0.09 in2.3 mm
02:15 AM 43.8°F6.6°C 43.0°F6.1°C 97% 9.2 mph SW14.8 kmh SW 12.7 mph20.4 kmh 29.72 in1006.4 mb - 0.01 in0.3 mm 0.09 in2.3 mm
02:00 AM 43.7°F6.5°C 42.9°F6.1°C 97% 10.4 mph SSW16.7 kmh SSW 12.7 mph20.4 kmh 29.71 in1006.1 mb - 0.02 in0.5 mm 0.09 in2.3 mm
01:45 AM 43.7°F6.5°C 42.9°F6.1°C 97% 5.8 mph SSW9.3 kmh SSW 9.2 mph14.8 kmh 29.71 in1006.1 mb - 0.03 in0.8 mm 0.09 in2.3 mm
01:30 AM 43.6°F6.4°C 42.8°F6.0°C 97% 9.2 mph SSW14.8 kmh SSW 11.5 mph18.5 kmh 29.71 in1006.1 mb - 0.05 in1.3 mm 0.09 in2.3 mm
01:15 AM 43.1°F6.2°C 42.3°F5.7°C 97% 6.9 mph S11.1 kmh S 11.5 mph18.5 kmh 29.71 in1006.1 mb - 0.07 in1.8 mm 0.08 in2.0 mm
01:00 AM 43.0°F6.1°C 41.9°F5.5°C 96% 9.2 mph S14.8 kmh S 13.8 mph22.2 kmh 29.72 in1006.4 mb - 0.06 in1.5 mm 0.06 in1.5 mm
12:45 AM 42.8°F6.0°C 41.7°F5.4°C 96% 11.5 mph S18.5 kmh S 13.8 mph22.2 kmh 29.72 in1006.4 mb - 0.06 in1.5 mm 0.06 in1.5 mm
12:30 AM 42.8°F6.0°C 41.7°F5.4°C 96% 10.4 mph SSE16.7 kmh SSE 16.1 mph25.9 kmh 29.72 in1006.4 mb - 0.05 in1.3 mm 0.04 in1.0 mm
12:15 AM 42.8°F6.0°C 41.7°F5.4°C 96% 8.1 mph S13.0 kmh S 10.4 mph16.7 kmh 29.72 in1006.4 mb - 0.02 in0.5 mm 0.01 in0.3 mm
12:00 AM 42.7°F5.9°C 41.6°F5.3°C 96% 10.4 mph S16.7 kmh S 17.3 mph27.8 kmh 29.72 in1006.4 mb - 0.01 in0.3 mm 0.01 in0.3 mm